sensor_id;sensor_type;location;lat;lon;timestamp;temperature;humidity
21318;DHT22;10818;50.830;6.524;2022-12-24T00:04:30;10.70;99.90
21318;DHT22;10818;50.830;6.524;2022-12-24T00:09:30;10.70;99.90
21318;DHT22;10818;50.830;6.524;2022-12-24T00:14:31;10.80;99.90
21318;DHT22;10818;50.830;6.524;2022-12-24T00:19:31;10.80;99.90
21318;DHT22;10818;50.830;6.524;2022-12-24T00:24:32;11.00;99.90
21318;DHT22;10818;50.830;6.524;2022-12-24T00:29:32;11.10;99.90
21318;DHT22;10818;50.830;6.524;2022-12-24T00:34:33;11.10;99.90
21318;DHT22;10818;50.830;6.524;2022-12-24T00:39:33;11.00;99.90
21318;DHT22;10818;50.830;6.524;2022-12-24T00:44:34;10.90;99.90
21318;DHT22;10818;50.830;6.524;2022-12-24T00:49:34;10.90;99.90
21318;DHT22;10818;50.830;6.524;2022-12-24T00:54:34;10.80;99.90
21318;DHT22;10818;50.830;6.524;2022-12-24T00:59:35;10.90;99.90
21318;DHT22;10818;50.830;6.524;2022-12-24T01:04:35;10.90;99.90
21318;DHT22;10818;50.830;6.524;2022-12-24T01:09:54;10.80;99.90
21318;DHT22;10818;50.830;6.524;2022-12-24T01:14:55;10.80;99.90
21318;DHT22;10818;50.830;6.524;2022-12-24T01:19:55;10.70;99.90
21318;DHT22;10818;50.830;6.524;2022-12-24T01:24:56;10.70;99.90
21318;DHT22;10818;50.830;6.524;2022-12-24T01:29:56;10.70;99.90
21318;DHT22;10818;50.830;6.524;2022-12-24T01:34:57;10.60;99.90
21318;DHT22;10818;50.830;6.524;2022-12-24T01:39:59;10.60;99.90
21318;DHT22;10818;50.830;6.524;2022-12-24T01:50:37;10.60;99.90
21318;DHT22;10818;50.830;6.524;2022-12-24T01:55:38;10.60;99.90
21318;DHT22;10818;50.830;6.524;2022-12-24T02:00:38;10.50;99.90
21318;DHT22;10818;50.830;6.524;2022-12-24T02:10:43;10.50;99.90
21318;DHT22;10818;50.830;6.524;2022-12-24T02:15:50;10.40;99.90
21318;DHT22;10818;50.830;6.524;2022-12-24T02:31:19;10.30;99.90
21318;DHT22;10818;50.830;6.524;2022-12-24T02:41:39;10.30;99.90
21318;DHT22;10818;50.830;6.524;2022-12-24T02:47:00;10.50;99.90
21318;DHT22;10818;50.830;6.524;2022-12-24T02:52:01;10.60;99.90
21318;DHT22;10818;50.830;6.524;2022-12-24T03:02:12;10.70;99.90
21318;DHT22;10818;50.830;6.524;2022-12-24T03:12:23;10.60;99.90
21318;DHT22;10818;50.830;6.524;2022-12-24T03:17:25;10.70;99.90
21318;DHT22;10818;50.830;6.524;2022-12-24T03:22:25;10.50;99.90
21318;DHT22;10818;50.830;6.524;2022-12-24T03:27:26;10.50;99.90
21318;DHT22;10818;50.830;6.524;2022-12-24T03:32:29;10.50;99.90
21318;DHT22;10818;50.830;6.524;2022-12-24T03:37:29;10.30;99.90
21318;DHT22;10818;50.830;6.524;2022-12-24T03:42:30;10.30;99.90
21318;DHT22;10818;50.830;6.524;2022-12-24T03:47:30;10.30;99.90
21318;DHT22;10818;50.830;6.524;2022-12-24T03:52:31;10.20;99.90
21318;DHT22;10818;50.830;6.524;2022-12-24T03:57:31;10.20;99.90
21318;DHT22;10818;50.830;6.524;2022-12-24T04:02:31;10.10;99.90
21318;DHT22;10818;50.830;6.524;2022-12-24T04:07:32;10.10;99.90
21318;DHT22;10818;50.830;6.524;2022-12-24T04:12:33;10.00;99.90
21318;DHT22;10818;50.830;6.524;2022-12-24T04:17:33;10.00;99.90
21318;DHT22;10818;50.830;6.524;2022-12-24T04:22:34;9.90;99.90
21318;DHT22;10818;50.830;6.524;2022-12-24T04:27:34;9.70;99.90
21318;DHT22;10818;50.830;6.524;2022-12-24T04:32:34;9.60;99.90
21318;DHT22;10818;50.830;6.524;2022-12-24T04:37:35;9.60;99.90
21318;DHT22;10818;50.830;6.524;2022-12-24T04:42:35;9.50;99.90
21318;DHT22;10818;50.830;6.524;2022-12-24T04:47:36;9.50;99.90
21318;DHT22;10818;50.830;6.524;2022-12-24T04:52:36;9.60;99.90
21318;DHT22;10818;50.830;6.524;2022-12-24T04:57:37;9.80;99.90
21318;DHT22;10818;50.830;6.524;2022-12-24T05:02:37;9.90;99.90
21318;DHT22;10818;50.830;6.524;2022-12-24T05:07:38;10.00;99.90
21318;DHT22;10818;50.830;6.524;2022-12-24T05:12:38;10.20;99.90
21318;DHT22;10818;50.830;6.524;2022-12-24T05:17:39;10.20;99.90
21318;DHT22;10818;50.830;6.524;2022-12-24T05:22:39;10.20;99.90
21318;DHT22;10818;50.830;6.524;2022-12-24T05:27:58;10.20;99.90
21318;DHT22;10818;50.830;6.524;2022-12-24T05:32:59;10.30;99.90
21318;DHT22;10818;50.830;6.524;2022-12-24T05:37:59;10.40;99.90
21318;DHT22;10818;50.830;6.524;2022-12-24T05:42:59;10.30;99.90
21318;DHT22;10818;50.830;6.524;2022-12-24T05:48:00;10.20;99.90
21318;DHT22;10818;50.830;6.524;2022-12-24T05:53:00;10.20;99.90
21318;DHT22;10818;50.830;6.524;2022-12-24T05:58:01;10.20;99.90
21318;DHT22;10818;50.830;6.524;2022-12-24T06:03:01;10.30;99.90
21318;DHT22;10818;50.830;6.524;2022-12-24T06:08:02;10.40;99.90
21318;DHT22;10818;50.830;6.524;2022-12-24T06:13:03;10.50;99.90
21318;DHT22;10818;50.830;6.524;2022-12-24T06:18:03;10.60;99.90
21318;DHT22;10818;50.830;6.524;2022-12-24T06:23:03;10.60;99.90
21318;DHT22;10818;50.830;6.524;2022-12-24T06:28:04;10.60;99.90
21318;DHT22;10818;50.830;6.524;2022-12-24T06:33:04;10.70;99.90
21318;DHT22;10818;50.830;6.524;2022-12-24T06:38:05;10.70;99.90
21318;DHT22;10818;50.830;6.524;2022-12-24T06:43:05;10.60;99.90
21318;DHT22;10818;50.830;6.524;2022-12-24T06:48:06;10.50;99.90
21318;DHT22;10818;50.830;6.524;2022-12-24T06:53:06;10.50;99.90
21318;DHT22;10818;50.830;6.524;2022-12-24T06:58:07;10.50;99.90
21318;DHT22;10818;50.830;6.524;2022-12-24T07:03:08;10.60;99.90
21318;DHT22;10818;50.830;6.524;2022-12-24T07:08:08;10.50;99.90
21318;DHT22;10818;50.830;6.524;2022-12-24T07:13:08;10.60;99.90
21318;DHT22;10818;50.830;6.524;2022-12-24T07:18:09;10.60;99.90
21318;DHT22;10818;50.830;6.524;2022-12-24T07:23:10;10.60;99.90
21318;DHT22;10818;50.830;6.524;2022-12-24T07:28:10;10.60;99.90
21318;DHT22;10818;50.830;6.524;2022-12-24T07:33:11;10.60;99.90
21318;DHT22;10818;50.830;6.524;2022-12-24T07:38:11;10.60;99.90
21318;DHT22;10818;50.830;6.524;2022-12-24T07:43:11;10.60;99.90
21318;DHT22;10818;50.830;6.524;2022-12-24T07:48:14;10.70;99.90
21318;DHT22;10818;50.830;6.524;2022-12-24T07:53:14;10.60;99.90
21318;DHT22;10818;50.830;6.524;2022-12-24T07:58:15;10.60;99.90
21318;DHT22;10818;50.830;6.524;2022-12-24T08:03:16;10.70;99.90
21318;DHT22;10818;50.830;6.524;2022-12-24T08:08:17;10.80;99.90
21318;DHT22;10818;50.830;6.524;2022-12-24T08:13:18;10.90;99.90
21318;DHT22;10818;50.830;6.524;2022-12-24T08:18:18;11.00;99.90
21318;DHT22;10818;50.830;6.524;2022-12-24T08:23:18;11.20;99.90
21318;DHT22;10818;50.830;6.524;2022-12-24T08:28:19;11.50;99.90
21318;DHT22;10818;50.830;6.524;2022-12-24T08:33:20;11.40;99.90
21318;DHT22;10818;50.830;6.524;2022-12-24T08:38:21;11.50;99.90
21318;DHT22;10818;50.830;6.524;2022-12-24T08:43:22;11.50;99.90
21318;DHT22;10818;50.830;6.524;2022-12-24T08:48:24;11.60;99.90
21318;DHT22;10818;50.830;6.524;2022-12-24T08:53:25;11.80;99.90
21318;DHT22;10818;50.830;6.524;2022-12-24T08:58:25;12.00;99.90
21318;DHT22;10818;50.830;6.524;2022-12-24T09:03:25;12.00;99.90
21318;DHT22;10818;50.830;6.524;2022-12-24T09:08:26;12.20;99.90
21318;DHT22;10818;50.830;6.524;2022-12-24T09:13:28;12.20;99.90
21318;DHT22;10818;50.830;6.524;2022-12-24T09:18:29;12.60;99.90
21318;DHT22;10818;50.830;6.524;2022-12-24T09:23:29;12.40;99.90
21318;DHT22;10818;50.830;6.524;2022-12-24T09:28:30;12.10;99.90
21318;DHT22;10818;50.830;6.524;2022-12-24T09:33:35;12.10;99.90
21318;DHT22;10818;50.830;6.524;2022-12-24T09:38:36;12.10;99.90
21318;DHT22;10818;50.830;6.524;2022-12-24T09:43:37;11.90;99.90
21318;DHT22;10818;50.830;6.524;2022-12-24T09:48:39;12.00;99.90
21318;DHT22;10818;50.830;6.524;2022-12-24T09:53:42;12.20;99.90
21318;DHT22;10818;50.830;6.524;2022-12-24T09:58:47;12.30;99.90
21318;DHT22;10818;50.830;6.524;2022-12-24T10:03:48;12.50;99.90
21318;DHT22;10818;50.830;6.524;2022-12-24T10:13:54;12.30;99.90
21318;DHT22;10818;50.830;6.524;2022-12-24T10:19:44;12.30;99.90
21318;DHT22;10818;50.830;6.524;2022-12-24T10:29:34;12.30;99.90
21318;DHT22;10818;50.830;6.524;2022-12-24T10:34:37;12.30;99.90
21318;DHT22;10818;50.830;6.524;2022-12-24T10:39:39;12.40;99.90
21318;DHT22;10818;50.830;6.524;2022-12-24T10:44:39;12.60;99.90
21318;DHT22;10818;50.830;6.524;2022-12-24T10:49:48;12.60;99.90
21318;DHT22;10818;50.830;6.524;2022-12-24T10:55:19;12.50;99.90
21318;DHT22;10818;50.830;6.524;2022-12-24T11:00:21;12.60;99.90
21318;DHT22;10818;50.830;6.524;2022-12-24T11:05:32;12.50;99.90
21318;DHT22;10818;50.830;6.524;2022-12-24T11:10:35;12.60;99.90
21318;DHT22;10818;50.830;6.524;2022-12-24T11:15:38;12.90;99.90
21318;DHT22;10818;50.830;6.524;2022-12-24T11:20:39;13.20;99.90
21318;DHT22;10818;50.830;6.524;2022-12-24T11:25:40;12.90;99.90
21318;DHT22;10818;50.830;6.524;2022-12-24T11:30:40;12.70;99.90
21318;DHT22;10818;50.830;6.524;2022-12-24T11:35:43;12.70;99.90
21318;DHT22;10818;50.830;6.524;2022-12-24T11:40:46;12.60;99.90
21318;DHT22;10818;50.830;6.524;2022-12-24T11:45:51;13.10;99.90
21318;DHT22;10818;50.830;6.524;2022-12-24T11:51:06;13.20;99.90
21318;DHT22;10818;50.830;6.524;2022-12-24T11:56:14;13.00;99.90
21318;DHT22;10818;50.830;6.524;2022-12-24T12:01:51;13.20;99.90
21318;DHT22;10818;50.830;6.524;2022-12-24T12:06:47;13.20;99.90
21318;DHT22;10818;50.830;6.524;2022-12-24T12:11:50;13.10;99.90
21318;DHT22;10818;50.830;6.524;2022-12-24T12:17:00;13.10;99.90
21318;DHT22;10818;50.830;6.524;2022-12-24T12:22:06;13.10;99.90
21318;DHT22;10818;50.830;6.524;2022-12-24T12:27:16;13.20;99.90
21318;DHT22;10818;50.830;6.524;2022-12-24T12:32:24;13.40;99.90
21318;DHT22;10818;50.830;6.524;2022-12-24T12:37:30;13.50;99.90
21318;DHT22;10818;50.830;6.524;2022-12-24T12:42:32;13.60;99.90
21318;DHT22;10818;50.830;6.524;2022-12-24T12:57:59;13.70;99.90
21318;DHT22;10818;50.830;6.524;2022-12-24T13:13:15;14.00;99.90
21318;DHT22;10818;50.830;6.524;2022-12-24T13:18:31;14.20;99.90
21318;DHT22;10818;50.830;6.524;2022-12-24T13:23:34;14.10;99.90
21318;DHT22;10818;50.830;6.524;2022-12-24T13:28:35;14.30;99.90
21318;DHT22;10818;50.830;6.524;2022-12-24T13:49:09;14.60;99.90
21318;DHT22;10818;50.830;6.524;2022-12-24T13:54:11;14.50;99.90
21318;DHT22;10818;50.830;6.524;2022-12-24T13:59:20;14.20;99.90
21318;DHT22;10818;50.830;6.524;2022-12-24T14:04:26;13.80;99.90
21318;DHT22;10818;50.830;6.524;2022-12-24T14:09:28;13.50;99.90
21318;DHT22;10818;50.830;6.524;2022-12-24T14:14:31;13.20;99.90
21318;DHT22;10818;50.830;6.524;2022-12-24T14:19:39;13.00;99.90
21318;DHT22;10818;50.830;6.524;2022-12-24T14:24:41;12.80;99.90
21318;DHT22;10818;50.830;6.524;2022-12-24T14:29:54;12.70;99.90
21318;DHT22;10818;50.830;6.524;2022-12-24T14:40:14;12.50;99.90
21318;DHT22;10818;50.830;6.524;2022-12-24T14:45:17;12.40;99.90
21318;DHT22;10818;50.830;6.524;2022-12-24T14:50:31;12.30;99.90
21318;DHT22;10818;50.830;6.524;2022-12-24T15:00:36;12.10;99.90
21318;DHT22;10818;50.830;6.524;2022-12-24T15:05:36;12.00;99.90
21318;DHT22;10818;50.830;6.524;2022-12-24T15:10:38;12.00;99.90
21318;DHT22;10818;50.830;6.524;2022-12-24T15:15:41;11.80;99.90
21318;DHT22;10818;50.830;6.524;2022-12-24T15:20:42;11.70;99.90
21318;DHT22;10818;50.830;6.524;2022-12-24T15:25:45;11.60;99.90
21318;DHT22;10818;50.830;6.524;2022-12-24T15:30:45;11.50;99.90
21318;DHT22;10818;50.830;6.524;2022-12-24T15:35:50;11.50;99.90
21318;DHT22;10818;50.830;6.524;2022-12-24T15:40:52;11.40;99.90
21318;DHT22;10818;50.830;6.524;2022-12-24T15:45:53;11.40;99.90
21318;DHT22;10818;50.830;6.524;2022-12-24T15:50:54;11.40;99.90
21318;DHT22;10818;50.830;6.524;2022-12-24T15:56:00;11.20;99.90
21318;DHT22;10818;50.830;6.524;2022-12-24T16:11:09;10.90;99.90
21318;DHT22;10818;50.830;6.524;2022-12-24T16:16:11;10.80;99.90
21318;DHT22;10818;50.830;6.524;2022-12-24T16:21:18;10.70;99.90
21318;DHT22;10818;50.830;6.524;2022-12-24T16:26:19;10.60;99.90
21318;DHT22;10818;50.830;6.524;2022-12-24T16:36:49;10.40;99.90
21318;DHT22;10818;50.830;6.524;2022-12-24T16:41:50;10.30;99.90
21318;DHT22;10818;50.830;6.524;2022-12-24T16:47:14;10.20;99.90
21318;DHT22;10818;50.830;6.524;2022-12-24T16:52:16;10.00;99.90
21318;DHT22;10818;50.830;6.524;2022-12-24T16:57:17;9.90;99.90
21318;DHT22;10818;50.830;6.524;2022-12-24T17:02:19;9.90;99.90
21318;DHT22;10818;50.830;6.524;2022-12-24T17:07:19;9.70;99.90
21318;DHT22;10818;50.830;6.524;2022-12-24T17:12:20;9.40;99.90
21318;DHT22;10818;50.830;6.524;2022-12-24T17:17:25;9.30;99.90
21318;DHT22;10818;50.830;6.524;2022-12-24T17:22:26;9.10;99.90
21318;DHT22;10818;50.830;6.524;2022-12-24T17:27:27;9.00;99.90
21318;DHT22;10818;50.830;6.524;2022-12-24T17:32:27;8.80;99.90
21318;DHT22;10818;50.830;6.524;2022-12-24T17:37:28;8.80;99.90
21318;DHT22;10818;50.830;6.524;2022-12-24T17:42:28;8.80;99.90
21318;DHT22;10818;50.830;6.524;2022-12-24T17:47:29;8.70;99.90
21318;DHT22;10818;50.830;6.524;2022-12-24T17:52:29;8.70;99.90
21318;DHT22;10818;50.830;6.524;2022-12-24T17:57:30;8.60;99.90
21318;DHT22;10818;50.830;6.524;2022-12-24T18:02:30;8.60;99.90
21318;DHT22;10818;50.830;6.524;2022-12-24T18:07:31;8.60;99.90
21318;DHT22;10818;50.830;6.524;2022-12-24T18:12:31;8.60;99.90
21318;DHT22;10818;50.830;6.524;2022-12-24T18:17:32;8.60;99.90
21318;DHT22;10818;50.830;6.524;2022-12-24T18:22:32;8.60;99.90
21318;DHT22;10818;50.830;6.524;2022-12-24T18:27:33;8.60;99.90
21318;DHT22;10818;50.830;6.524;2022-12-24T18:32:34;8.60;99.90
21318;DHT22;10818;50.830;6.524;2022-12-24T18:37:34;8.70;99.90
21318;DHT22;10818;50.830;6.524;2022-12-24T18:42:35;8.70;99.90
21318;DHT22;10818;50.830;6.524;2022-12-24T18:47:35;8.80;99.90
21318;DHT22;10818;50.830;6.524;2022-12-24T18:52:36;8.80;99.90
21318;DHT22;10818;50.830;6.524;2022-12-24T18:57:36;8.90;99.90
21318;DHT22;10818;50.830;6.524;2022-12-24T19:02:37;9.00;99.90
21318;DHT22;10818;50.830;6.524;2022-12-24T19:07:37;9.10;99.90
21318;DHT22;10818;50.830;6.524;2022-12-24T19:12:38;9.10;99.90
21318;DHT22;10818;50.830;6.524;2022-12-24T19:17:38;9.20;99.90
21318;DHT22;10818;50.830;6.524;2022-12-24T19:22:39;9.20;99.90
21318;DHT22;10818;50.830;6.524;2022-12-24T19:27:39;9.30;99.90
21318;DHT22;10818;50.830;6.524;2022-12-24T19:32:39;9.40;99.90
21318;DHT22;10818;50.830;6.524;2022-12-24T19:37:40;9.40;99.90
21318;DHT22;10818;50.830;6.524;2022-12-24T19:42:40;9.40;99.90
21318;DHT22;10818;50.830;6.524;2022-12-24T19:47:41;9.40;99.90
21318;DHT22;10818;50.830;6.524;2022-12-24T19:52:41;9.50;99.90
21318;DHT22;10818;50.830;6.524;2022-12-24T19:57:42;9.50;99.90
21318;DHT22;10818;50.830;6.524;2022-12-24T20:02:42;9.50;99.90
21318;DHT22;10818;50.830;6.524;2022-12-24T20:07:43;9.40;99.90
21318;DHT22;10818;50.830;6.524;2022-12-24T20:12:43;9.40;99.90
21318;DHT22;10818;50.830;6.524;2022-12-24T20:17:44;9.40;99.90
21318;DHT22;10818;50.830;6.524;2022-12-24T20:22:51;9.50;99.90
21318;DHT22;10818;50.830;6.524;2022-12-24T20:27:51;9.40;99.90
21318;DHT22;10818;50.830;6.524;2022-12-24T20:32:52;9.50;99.90
21318;DHT22;10818;50.830;6.524;2022-12-24T20:37:53;9.50;99.90
21318;DHT22;10818;50.830;6.524;2022-12-24T20:42:54;9.50;99.90
21318;DHT22;10818;50.830;6.524;2022-12-24T20:47:54;9.50;99.90
21318;DHT22;10818;50.830;6.524;2022-12-24T20:52:55;9.50;99.90
21318;DHT22;10818;50.830;6.524;2022-12-24T20:57:55;9.50;99.90
21318;DHT22;10818;50.830;6.524;2022-12-24T21:02:56;9.40;99.90
21318;DHT22;10818;50.830;6.524;2022-12-24T21:07:56;9.40;99.90
21318;DHT22;10818;50.830;6.524;2022-12-24T21:12:56;9.40;99.90
21318;DHT22;10818;50.830;6.524;2022-12-24T21:17:58;9.20;99.90
21318;DHT22;10818;50.830;6.524;2022-12-24T21:22:59;9.00;99.90
21318;DHT22;10818;50.830;6.524;2022-12-24T21:28:00;9.00;99.90
21318;DHT22;10818;50.830;6.524;2022-12-24T21:33:00;9.00;99.90
21318;DHT22;10818;50.830;6.524;2022-12-24T21:38:01;9.00;99.90
21318;DHT22;10818;50.830;6.524;2022-12-24T21:43:02;9.00;99.90
21318;DHT22;10818;50.830;6.524;2022-12-24T21:48:02;9.00;99.90
21318;DHT22;10818;50.830;6.524;2022-12-24T21:53:23;8.80;99.90
21318;DHT22;10818;50.830;6.524;2022-12-24T21:58:42;8.80;99.90
21318;DHT22;10818;50.830;6.524;2022-12-24T22:03:43;8.70;99.90
21318;DHT22;10818;50.830;6.524;2022-12-24T22:08:43;8.60;99.90
21318;DHT22;10818;50.830;6.524;2022-12-24T22:14:02;8.80;99.90
21318;DHT22;10818;50.830;6.524;2022-12-24T22:19:03;8.70;99.90
21318;DHT22;10818;50.830;6.524;2022-12-24T22:24:03;8.80;99.90
21318;DHT22;10818;50.830;6.524;2022-12-24T22:29:04;8.80;99.90
21318;DHT22;10818;50.830;6.524;2022-12-24T22:34:05;8.90;99.90
21318;DHT22;10818;50.830;6.524;2022-12-24T22:39:06;8.80;99.90
21318;DHT22;10818;50.830;6.524;2022-12-24T22:44:06;8.80;99.90
21318;DHT22;10818;50.830;6.524;2022-12-24T22:49:07;8.80;99.90
21318;DHT22;10818;50.830;6.524;2022-12-24T22:54:08;8.80;99.90
21318;DHT22;10818;50.830;6.524;2022-12-24T22:59:11;9.00;99.90
21318;DHT22;10818;50.830;6.524;2022-12-24T23:04:12;9.10;99.90
21318;DHT22;10818;50.830;6.524;2022-12-24T23:09:13;9.00;99.90
21318;DHT22;10818;50.830;6.524;2022-12-24T23:14:16;9.00;99.90
21318;DHT22;10818;50.830;6.524;2022-12-24T23:19:36;9.10;99.90
21318;DHT22;10818;50.830;6.524;2022-12-24T23:24:36;9.10;99.90
21318;DHT22;10818;50.830;6.524;2022-12-24T23:29:38;9.20;99.90
21318;DHT22;10818;50.830;6.524;2022-12-24T23:34:39;9.10;99.90
21318;DHT22;10818;50.830;6.524;2022-12-24T23:39:39;9.20;99.90
21318;DHT22;10818;50.830;6.524;2022-12-24T23:44:40;9.10;99.90
21318;DHT22;10818;50.830;6.524;2022-12-24T23:49:40;9.20;99.90
21318;DHT22;10818;50.830;6.524;2022-12-24T23:54:40;9.40;99.90
21318;DHT22;10818;50.830;6.524;2022-12-24T23:59:41;9.50;99.90
